sensor_id;sensor_type;location;lat;lon;timestamp;P1;durP1;ratioP1;P2;durP2;ratioP2
13218;SDS011;6674;49.152;11.918;2023-04-03T00:01:43;2.90;;;2.70;;
13218;SDS011;6674;49.152;11.918;2023-04-03T00:04:11;2.93;;;2.73;;
13218;SDS011;6674;49.152;11.918;2023-04-03T00:06:37;3.03;;;2.50;;
13218;SDS011;6674;49.152;11.918;2023-04-03T00:09:05;3.00;;;2.80;;
13218;SDS011;6674;49.152;11.918;2023-04-03T00:11:31;2.70;;;2.50;;
13218;SDS011;6674;49.152;11.918;2023-04-03T00:13:58;3.70;;;2.83;;
13218;SDS011;6674;49.152;11.918;2023-04-03T00:16:25;2.93;;;2.73;;
13218;SDS011;6674;49.152;11.918;2023-04-03T00:18:52;3.40;;;2.87;;
13218;SDS011;6674;49.152;11.918;2023-04-03T00:21:20;3.03;;;2.77;;
13218;SDS011;6674;49.152;11.918;2023-04-03T00:23:46;3.07;;;2.80;;
13218;SDS011;6674;49.152;11.918;2023-04-03T00:26:13;3.40;;;2.70;;
13218;SDS011;6674;49.152;11.918;2023-04-03T00:28:40;3.07;;;2.80;;
13218;SDS011;6674;49.152;11.918;2023-04-03T00:31:06;2.73;;;2.53;;
13218;SDS011;6674;49.152;11.918;2023-04-03T00:33:33;3.40;;;3.07;;
13218;SDS011;6674;49.152;11.918;2023-04-03T00:36:04;3.77;;;3.30;;
13218;SDS011;6674;49.152;11.918;2023-04-03T00:38:33;2.70;;;2.50;;
13218;SDS011;6674;49.152;11.918;2023-04-03T00:41:00;2.97;;;2.77;;
13218;SDS011;6674;49.152;11.918;2023-04-03T00:43:27;3.10;;;2.53;;
13218;SDS011;6674;49.152;11.918;2023-04-03T00:45:54;2.90;;;2.70;;
13218;SDS011;6674;49.152;11.918;2023-04-03T00:48:23;3.03;;;2.77;;
13218;SDS011;6674;49.152;11.918;2023-04-03T00:50:53;2.70;;;2.50;;
13218;SDS011;6674;49.152;11.918;2023-04-03T00:53:22;3.20;;;2.70;;
13218;SDS011;6674;49.152;11.918;2023-04-03T00:55:53;2.50;;;2.30;;
13218;SDS011;6674;49.152;11.918;2023-04-03T00:58:22;2.80;;;2.60;;
13218;SDS011;6674;49.152;11.918;2023-04-03T01:00:54;3.40;;;2.73;;
13218;SDS011;6674;49.152;11.918;2023-04-03T01:03:24;2.60;;;2.40;;
13218;SDS011;6674;49.152;11.918;2023-04-03T01:05:51;2.63;;;2.43;;
13218;SDS011;6674;49.152;11.918;2023-04-03T01:08:18;2.90;;;2.53;;
13218;SDS011;6674;49.152;11.918;2023-04-03T01:10:44;2.97;;;2.70;;
13218;SDS011;6674;49.152;11.918;2023-04-03T01:13:20;2.70;;;2.50;;
13218;SDS011;6674;49.152;11.918;2023-04-03T01:15:49;2.87;;;2.50;;
13218;SDS011;6674;49.152;11.918;2023-04-03T01:18:16;2.37;;;2.17;;
13218;SDS011;6674;49.152;11.918;2023-04-03T01:20:49;2.33;;;2.13;;
13218;SDS011;6674;49.152;11.918;2023-04-03T01:23:43;2.73;;;2.53;;
13218;SDS011;6674;49.152;11.918;2023-04-03T01:26:21;2.60;;;2.40;;
13218;SDS011;6674;49.152;11.918;2023-04-03T01:28:49;2.60;;;2.40;;
13218;SDS011;6674;49.152;11.918;2023-04-03T01:31:19;2.60;;;2.40;;
13218;SDS011;6674;49.152;11.918;2023-04-03T01:33:52;2.87;;;2.67;;
13218;SDS011;6674;49.152;11.918;2023-04-03T01:36:20;4.13;;;2.77;;
13218;SDS011;6674;49.152;11.918;2023-04-03T01:38:49;2.70;;;2.50;;
13218;SDS011;6674;49.152;11.918;2023-04-03T01:41:16;2.70;;;2.50;;
13218;SDS011;6674;49.152;11.918;2023-04-03T01:43:43;2.60;;;2.40;;
13218;SDS011;6674;49.152;11.918;2023-04-03T01:46:10;2.80;;;2.60;;
13218;SDS011;6674;49.152;11.918;2023-04-03T01:48:37;2.67;;;2.47;;
13218;SDS011;6674;49.152;11.918;2023-04-03T01:51:06;2.23;;;2.13;;
13218;SDS011;6674;49.152;11.918;2023-04-03T01:53:33;2.40;;;2.20;;
13218;SDS011;6674;49.152;11.918;2023-04-03T01:55:59;2.47;;;2.03;;
13218;SDS011;6674;49.152;11.918;2023-04-03T01:58:26;2.43;;;2.23;;
13218;SDS011;6674;49.152;11.918;2023-04-03T02:00:53;1.90;;;1.80;;
13218;SDS011;6674;49.152;11.918;2023-04-03T02:03:20;2.83;;;2.60;;
13218;SDS011;6674;49.152;11.918;2023-04-03T02:05:47;2.23;;;2.10;;
13218;SDS011;6674;49.152;11.918;2023-04-03T02:08:15;2.57;;;2.40;;
13218;SDS011;6674;49.152;11.918;2023-04-03T02:10:43;2.80;;;2.50;;
13218;SDS011;6674;49.152;11.918;2023-04-03T02:13:10;2.93;;;2.50;;
13218;SDS011;6674;49.152;11.918;2023-04-03T02:15:38;2.57;;;2.37;;
13218;SDS011;6674;49.152;11.918;2023-04-03T02:18:05;3.27;;;2.70;;
13218;SDS011;6674;49.152;11.918;2023-04-03T02:20:32;1.70;;;1.60;;
13218;SDS011;6674;49.152;11.918;2023-04-03T02:22:59;2.40;;;2.30;;
13218;SDS011;6674;49.152;11.918;2023-04-03T02:25:28;3.60;;;2.80;;
13218;SDS011;6674;49.152;11.918;2023-04-03T02:27:54;2.30;;;2.17;;
13218;SDS011;6674;49.152;11.918;2023-04-03T02:30:22;2.50;;;2.30;;
13218;SDS011;6674;49.152;11.918;2023-04-03T02:32:49;3.07;;;2.30;;
13218;SDS011;6674;49.152;11.918;2023-04-03T02:35:15;2.70;;;2.40;;
13218;SDS011;6674;49.152;11.918;2023-04-03T02:37:42;2.57;;;2.37;;
13218;SDS011;6674;49.152;11.918;2023-04-03T02:40:10;3.03;;;2.70;;
13218;SDS011;6674;49.152;11.918;2023-04-03T02:42:39;2.07;;;1.93;;
13218;SDS011;6674;49.152;11.918;2023-04-03T02:45:06;2.57;;;2.37;;
13218;SDS011;6674;49.152;11.918;2023-04-03T02:47:33;2.93;;;2.60;;
13218;SDS011;6674;49.152;11.918;2023-04-03T02:50:00;2.57;;;2.30;;
13218;SDS011;6674;49.152;11.918;2023-04-03T02:52:26;2.80;;;2.23;;
13218;SDS011;6674;49.152;11.918;2023-04-03T02:54:55;2.93;;;2.67;;
13218;SDS011;6674;49.152;11.918;2023-04-03T02:57:22;2.70;;;2.50;;
13218;SDS011;6674;49.152;11.918;2023-04-03T02:59:50;2.70;;;2.50;;
13218;SDS011;6674;49.152;11.918;2023-04-03T03:02:17;3.73;;;2.50;;
13218;SDS011;6674;49.152;11.918;2023-04-03T03:04:43;3.50;;;2.83;;
13218;SDS011;6674;49.152;11.918;2023-04-03T03:07:10;4.00;;;2.63;;
13218;SDS011;6674;49.152;11.918;2023-04-03T03:09:37;3.30;;;2.70;;
13218;SDS011;6674;49.152;11.918;2023-04-03T03:12:03;2.60;;;2.40;;
13218;SDS011;6674;49.152;11.918;2023-04-03T03:14:30;3.73;;;2.60;;
13218;SDS011;6674;49.152;11.918;2023-04-03T03:16:59;2.70;;;2.50;;
13218;SDS011;6674;49.152;11.918;2023-04-03T03:19:25;2.53;;;2.37;;
13218;SDS011;6674;49.152;11.918;2023-04-03T03:21:52;2.60;;;2.40;;
13218;SDS011;6674;49.152;11.918;2023-04-03T03:24:19;3.70;;;3.07;;
13218;SDS011;6674;49.152;11.918;2023-04-03T03:26:45;2.73;;;2.53;;
13218;SDS011;6674;49.152;11.918;2023-04-03T03:29:12;3.10;;;2.80;;
13218;SDS011;6674;49.152;11.918;2023-04-03T03:31:39;2.60;;;2.40;;
13218;SDS011;6674;49.152;11.918;2023-04-03T03:34:07;2.70;;;2.50;;
13218;SDS011;6674;49.152;11.918;2023-04-03T03:36:36;2.70;;;2.50;;
13218;SDS011;6674;49.152;11.918;2023-04-03T03:39:03;4.00;;;2.67;;
13218;SDS011;6674;49.152;11.918;2023-04-03T03:41:29;2.90;;;2.70;;
13218;SDS011;6674;49.152;11.918;2023-04-03T03:43:56;2.70;;;2.50;;
13218;SDS011;6674;49.152;11.918;2023-04-03T03:46:23;2.93;;;2.73;;
13218;SDS011;6674;49.152;11.918;2023-04-03T03:48:49;3.20;;;2.80;;
13218;SDS011;6674;49.152;11.918;2023-04-03T03:51:17;2.80;;;2.57;;
13218;SDS011;6674;49.152;11.918;2023-04-03T03:53:44;2.70;;;2.50;;
13218;SDS011;6674;49.152;11.918;2023-04-03T03:56:11;3.70;;;3.00;;
13218;SDS011;6674;49.152;11.918;2023-04-03T03:58:38;2.83;;;2.60;;
13218;SDS011;6674;49.152;11.918;2023-04-03T04:01:05;2.87;;;2.57;;
13218;SDS011;6674;49.152;11.918;2023-04-03T04:03:33;3.10;;;2.70;;
13218;SDS011;6674;49.152;11.918;2023-04-03T04:06:00;2.87;;;2.50;;
13218;SDS011;6674;49.152;11.918;2023-04-03T04:08:28;3.00;;;2.70;;
13218;SDS011;6674;49.152;11.918;2023-04-03T04:10:55;3.00;;;2.70;;
13218;SDS011;6674;49.152;11.918;2023-04-03T04:13:21;2.70;;;2.50;;
13218;SDS011;6674;49.152;11.918;2023-04-03T04:15:48;2.60;;;2.40;;
13218;SDS011;6674;49.152;11.918;2023-04-03T04:18:15;2.50;;;2.30;;
13218;SDS011;6674;49.152;11.918;2023-04-03T04:20:44;2.67;;;2.47;;
13218;SDS011;6674;49.152;11.918;2023-04-03T04:23:11;2.57;;;2.30;;
13218;SDS011;6674;49.152;11.918;2023-04-03T04:25:39;3.43;;;2.03;;
13218;SDS011;6674;49.152;11.918;2023-04-03T04:28:06;2.97;;;2.33;;
13218;SDS011;6674;49.152;11.918;2023-04-03T04:30:33;2.70;;;2.50;;
13218;SDS011;6674;49.152;11.918;2023-04-03T04:33:00;2.40;;;2.20;;
13218;SDS011;6674;49.152;11.918;2023-04-03T04:35:27;2.30;;;2.10;;
13218;SDS011;6674;49.152;11.918;2023-04-03T04:37:53;2.90;;;2.60;;
13218;SDS011;6674;49.152;11.918;2023-04-03T04:40:20;4.43;;;2.30;;
13218;SDS011;6674;49.152;11.918;2023-04-03T04:42:49;2.50;;;2.30;;
13218;SDS011;6674;49.152;11.918;2023-04-03T04:45:16;2.60;;;2.40;;
13218;SDS011;6674;49.152;11.918;2023-04-03T04:47:43;3.43;;;2.40;;
13218;SDS011;6674;49.152;11.918;2023-04-03T04:50:10;2.77;;;2.47;;
13218;SDS011;6674;49.152;11.918;2023-04-03T04:52:37;3.27;;;2.63;;
13218;SDS011;6674;49.152;11.918;2023-04-03T04:55:05;2.63;;;2.43;;
13218;SDS011;6674;49.152;11.918;2023-04-03T04:57:32;2.77;;;2.30;;
13218;SDS011;6674;49.152;11.918;2023-04-03T05:00:01;2.87;;;2.53;;
13218;SDS011;6674;49.152;11.918;2023-04-03T05:02:27;3.97;;;2.43;;
13218;SDS011;6674;49.152;11.918;2023-04-03T05:04:54;2.17;;;2.07;;
13218;SDS011;6674;49.152;11.918;2023-04-03T05:07:21;2.50;;;2.27;;
13218;SDS011;6674;49.152;11.918;2023-04-03T05:09:48;3.17;;;2.33;;
13218;SDS011;6674;49.152;11.918;2023-04-03T05:12:15;2.80;;;2.60;;
13218;SDS011;6674;49.152;11.918;2023-04-03T05:14:42;2.60;;;2.10;;
13218;SDS011;6674;49.152;11.918;2023-04-03T05:17:11;2.50;;;2.30;;
13218;SDS011;6674;49.152;11.918;2023-04-03T05:19:38;2.90;;;2.60;;
13218;SDS011;6674;49.152;11.918;2023-04-03T05:22:05;2.97;;;2.70;;
13218;SDS011;6674;49.152;11.918;2023-04-03T05:24:31;2.40;;;2.20;;
13218;SDS011;6674;49.152;11.918;2023-04-03T05:26:58;2.57;;;2.37;;
13218;SDS011;6674;49.152;11.918;2023-04-03T05:29:25;3.03;;;2.23;;
13218;SDS011;6674;49.152;11.918;2023-04-03T05:31:51;2.67;;;2.47;;
13218;SDS011;6674;49.152;11.918;2023-04-03T05:34:19;4.17;;;2.63;;
13218;SDS011;6674;49.152;11.918;2023-04-03T05:36:46;3.43;;;2.47;;
13218;SDS011;6674;49.152;11.918;2023-04-03T05:39:13;2.50;;;2.30;;
13218;SDS011;6674;49.152;11.918;2023-04-03T05:41:40;3.23;;;2.50;;
13218;SDS011;6674;49.152;11.918;2023-04-03T05:44:07;3.50;;;2.60;;
13218;SDS011;6674;49.152;11.918;2023-04-03T05:46:34;3.27;;;2.97;;
13218;SDS011;6674;49.152;11.918;2023-04-03T05:49:00;3.00;;;2.70;;
13218;SDS011;6674;49.152;11.918;2023-04-03T05:51:30;2.70;;;2.50;;
13218;SDS011;6674;49.152;11.918;2023-04-03T05:54:01;2.80;;;2.60;;
13218;SDS011;6674;49.152;11.918;2023-04-03T05:56:33;3.40;;;2.60;;
13218;SDS011;6674;49.152;11.918;2023-04-03T05:59:01;2.93;;;2.40;;
13218;SDS011;6674;49.152;11.918;2023-04-03T06:01:28;2.97;;;2.47;;
13218;SDS011;6674;49.152;11.918;2023-04-03T06:03:54;2.70;;;2.40;;
13218;SDS011;6674;49.152;11.918;2023-04-03T06:06:23;2.60;;;2.40;;
13218;SDS011;6674;49.152;11.918;2023-04-03T06:08:51;3.97;;;2.43;;
13218;SDS011;6674;49.152;11.918;2023-04-03T06:11:18;2.53;;;2.20;;
13218;SDS011;6674;49.152;11.918;2023-04-03T06:13:46;3.60;;;2.60;;
13218;SDS011;6674;49.152;11.918;2023-04-03T06:16:13;3.00;;;2.60;;
13218;SDS011;6674;49.152;11.918;2023-04-03T06:18:41;3.17;;;2.73;;
13218;SDS011;6674;49.152;11.918;2023-04-03T06:21:08;3.63;;;3.10;;
13218;SDS011;6674;49.152;11.918;2023-04-03T06:23:35;2.80;;;2.60;;
13218;SDS011;6674;49.152;11.918;2023-04-03T06:26:03;3.33;;;2.80;;
13218;SDS011;6674;49.152;11.918;2023-04-03T06:28:30;2.57;;;2.37;;
13218;SDS011;6674;49.152;11.918;2023-04-03T06:30:57;4.10;;;2.80;;
13218;SDS011;6674;49.152;11.918;2023-04-03T06:33:24;3.70;;;2.80;;
13218;SDS011;6674;49.152;11.918;2023-04-03T06:35:55;3.13;;;2.80;;
13218;SDS011;6674;49.152;11.918;2023-04-03T06:38:23;3.40;;;2.80;;
13218;SDS011;6674;49.152;11.918;2023-04-03T06:40:50;3.27;;;2.63;;
13218;SDS011;6674;49.152;11.918;2023-04-03T06:43:18;3.97;;;2.63;;
13218;SDS011;6674;49.152;11.918;2023-04-03T06:45:45;4.07;;;3.13;;
13218;SDS011;6674;49.152;11.918;2023-04-03T06:48:12;5.00;;;4.50;;
13218;SDS011;6674;49.152;11.918;2023-04-03T06:50:40;8.10;;;5.87;;
13218;SDS011;6674;49.152;11.918;2023-04-03T06:53:07;5.30;;;4.80;;
13218;SDS011;6674;49.152;11.918;2023-04-03T06:55:34;4.10;;;3.80;;
13218;SDS011;6674;49.152;11.918;2023-04-03T06:58:00;5.50;;;5.00;;
13218;SDS011;6674;49.152;11.918;2023-04-03T07:00:30;7.70;;;6.67;;
13218;SDS011;6674;49.152;11.918;2023-04-03T07:02:57;5.40;;;4.10;;
13218;SDS011;6674;49.152;11.918;2023-04-03T07:05:24;6.20;;;5.13;;
13218;SDS011;6674;49.152;11.918;2023-04-03T07:07:51;4.20;;;3.80;;
13218;SDS011;6674;49.152;11.918;2023-04-03T07:10:18;5.10;;;4.17;;
13218;SDS011;6674;49.152;11.918;2023-04-03T07:12:45;5.00;;;4.37;;
13218;SDS011;6674;49.152;11.918;2023-04-03T07:15:12;7.63;;;6.93;;
13218;SDS011;6674;49.152;11.918;2023-04-03T07:17:41;4.73;;;4.10;;
13218;SDS011;6674;49.152;11.918;2023-04-03T07:20:08;10.27;;;8.53;;
13218;SDS011;6674;49.152;11.918;2023-04-03T07:22:35;6.97;;;5.20;;
13218;SDS011;6674;49.152;11.918;2023-04-03T07:25:02;5.27;;;4.40;;
13218;SDS011;6674;49.152;11.918;2023-04-03T07:27:32;7.83;;;6.30;;
13218;SDS011;6674;49.152;11.918;2023-04-03T07:29:58;4.57;;;4.10;;
13218;SDS011;6674;49.152;11.918;2023-04-03T07:32:25;8.30;;;7.50;;
13218;SDS011;6674;49.152;11.918;2023-04-03T07:34:53;6.77;;;6.17;;
13218;SDS011;6674;49.152;11.918;2023-04-03T07:37:20;6.50;;;4.57;;
13218;SDS011;6674;49.152;11.918;2023-04-03T07:39:47;5.47;;;4.83;;
13218;SDS011;6674;49.152;11.918;2023-04-03T07:42:14;3.77;;;3.30;;
13218;SDS011;6674;49.152;11.918;2023-04-03T07:44:41;5.37;;;3.47;;
13218;SDS011;6674;49.152;11.918;2023-04-03T07:47:08;4.33;;;3.07;;
13218;SDS011;6674;49.152;11.918;2023-04-03T07:49:35;3.27;;;2.70;;
13218;SDS011;6674;49.152;11.918;2023-04-03T07:52:08;5.17;;;2.93;;
13218;SDS011;6674;49.152;11.918;2023-04-03T07:54:35;3.33;;;2.80;;
13218;SDS011;6674;49.152;11.918;2023-04-03T07:57:02;4.70;;;3.60;;
13218;SDS011;6674;49.152;11.918;2023-04-03T07:59:29;3.10;;;2.67;;
13218;SDS011;6674;49.152;11.918;2023-04-03T08:01:55;5.43;;;3.20;;
13218;SDS011;6674;49.152;11.918;2023-04-03T08:04:22;4.47;;;3.50;;
13218;SDS011;6674;49.152;11.918;2023-04-03T08:06:50;4.83;;;4.33;;
13218;SDS011;6674;49.152;11.918;2023-04-03T08:09:18;3.43;;;3.03;;
13218;SDS011;6674;49.152;11.918;2023-04-03T08:11:45;4.70;;;4.20;;
13218;SDS011;6674;49.152;11.918;2023-04-03T08:14:12;4.40;;;3.37;;
13218;SDS011;6674;49.152;11.918;2023-04-03T08:16:42;5.77;;;4.07;;
13218;SDS011;6674;49.152;11.918;2023-04-03T08:19:10;6.10;;;5.30;;
13218;SDS011;6674;49.152;11.918;2023-04-03T08:21:40;5.10;;;3.80;;
13218;SDS011;6674;49.152;11.918;2023-04-03T08:24:07;4.30;;;2.17;;
13218;SDS011;6674;49.152;11.918;2023-04-03T08:26:36;3.50;;;3.20;;
13218;SDS011;6674;49.152;11.918;2023-04-03T08:29:03;3.20;;;2.40;;
13218;SDS011;6674;49.152;11.918;2023-04-03T08:31:30;2.83;;;2.37;;
13218;SDS011;6674;49.152;11.918;2023-04-03T08:33:57;3.17;;;2.77;;
13218;SDS011;6674;49.152;11.918;2023-04-03T08:36:25;4.40;;;3.37;;
13218;SDS011;6674;49.152;11.918;2023-04-03T08:38:54;2.53;;;2.30;;
13218;SDS011;6674;49.152;11.918;2023-04-03T08:41:25;2.67;;;2.30;;
13218;SDS011;6674;49.152;11.918;2023-04-03T08:44:00;2.53;;;1.80;;
13218;SDS011;6674;49.152;11.918;2023-04-03T08:46:42;2.70;;;1.60;;
13218;SDS011;6674;49.152;11.918;2023-04-03T08:49:21;1.53;;;1.40;;
13218;SDS011;6674;49.152;11.918;2023-04-03T08:51:51;2.13;;;1.60;;
13218;SDS011;6674;49.152;11.918;2023-04-03T08:54:24;2.20;;;1.40;;
13218;SDS011;6674;49.152;11.918;2023-04-03T08:56:56;1.73;;;1.40;;
13218;SDS011;6674;49.152;11.918;2023-04-03T08:59:28;2.10;;;1.43;;
13218;SDS011;6674;49.152;11.918;2023-04-03T09:01:59;2.17;;;1.23;;
13218;SDS011;6674;49.152;11.918;2023-04-03T09:04:31;1.63;;;1.13;;
13218;SDS011;6674;49.152;11.918;2023-04-03T09:07:02;2.23;;;1.40;;
13218;SDS011;6674;49.152;11.918;2023-04-03T09:09:35;0.80;;;0.70;;
13218;SDS011;6674;49.152;11.918;2023-04-03T09:12:09;2.60;;;1.53;;
13218;SDS011;6674;49.152;11.918;2023-04-03T09:14:43;0.70;;;0.70;;
13218;SDS011;6674;49.152;11.918;2023-04-03T09:17:16;2.40;;;1.40;;
13218;SDS011;6674;49.152;11.918;2023-04-03T09:19:54;1.00;;;0.90;;
13218;SDS011;6674;49.152;11.918;2023-04-03T09:22:24;2.90;;;1.80;;
13218;SDS011;6674;49.152;11.918;2023-04-03T09:24:55;1.33;;;1.10;;
13218;SDS011;6674;49.152;11.918;2023-04-03T09:27:25;2.70;;;1.53;;
13218;SDS011;6674;49.152;11.918;2023-04-03T09:29:54;2.30;;;1.30;;
13218;SDS011;6674;49.152;11.918;2023-04-03T09:32:25;1.83;;;1.27;;
13218;SDS011;6674;49.152;11.918;2023-04-03T09:34:55;2.43;;;1.50;;
13218;SDS011;6674;49.152;11.918;2023-04-03T09:37:36;1.87;;;1.10;;
13218;SDS011;6674;49.152;11.918;2023-04-03T09:40:05;1.40;;;1.23;;
13218;SDS011;6674;49.152;11.918;2023-04-03T09:42:54;1.57;;;1.17;;
13218;SDS011;6674;49.152;11.918;2023-04-03T09:45:24;1.43;;;1.10;;
13218;SDS011;6674;49.152;11.918;2023-04-03T09:48:03;1.73;;;1.37;;
13218;SDS011;6674;49.152;11.918;2023-04-03T09:50:32;2.37;;;1.30;;
13218;SDS011;6674;49.152;11.918;2023-04-03T09:53:04;1.63;;;1.20;;
13218;SDS011;6674;49.152;11.918;2023-04-03T09:55:41;2.43;;;1.27;;
13218;SDS011;6674;49.152;11.918;2023-04-03T09:58:22;2.53;;;1.20;;
13218;SDS011;6674;49.152;11.918;2023-04-03T10:00:55;2.00;;;1.47;;
13218;SDS011;6674;49.152;11.918;2023-04-03T10:03:24;2.03;;;1.20;;
13218;SDS011;6674;49.152;11.918;2023-04-03T10:05:53;1.67;;;1.27;;
13218;SDS011;6674;49.152;11.918;2023-04-03T10:08:22;2.73;;;1.60;;
13218;SDS011;6674;49.152;11.918;2023-04-03T10:11:05;1.60;;;1.50;;
13218;SDS011;6674;49.152;11.918;2023-04-03T10:13:49;2.00;;;1.10;;
13218;SDS011;6674;49.152;11.918;2023-04-03T10:16:20;1.50;;;1.40;;
13218;SDS011;6674;49.152;11.918;2023-04-03T10:18:53;2.20;;;1.60;;
13218;SDS011;6674;49.152;11.918;2023-04-03T10:21:34;2.43;;;1.70;;
13218;SDS011;6674;49.152;11.918;2023-04-03T10:24:10;2.90;;;2.03;;
13218;SDS011;6674;49.152;11.918;2023-04-03T10:26:42;2.93;;;2.33;;
13218;SDS011;6674;49.152;11.918;2023-04-03T10:29:19;4.27;;;3.17;;
13218;SDS011;6674;49.152;11.918;2023-04-03T10:31:58;4.57;;;3.40;;
13218;SDS011;6674;49.152;11.918;2023-04-03T10:34:30;3.30;;;1.50;;
13218;SDS011;6674;49.152;11.918;2023-04-03T10:37:01;2.77;;;2.47;;
13218;SDS011;6674;49.152;11.918;2023-04-03T10:39:39;4.97;;;3.37;;
13218;SDS011;6674;49.152;11.918;2023-04-03T10:42:17;7.70;;;7.00;;
13218;SDS011;6674;49.152;11.918;2023-04-03T10:44:52;3.80;;;3.50;;
13218;SDS011;6674;49.152;11.918;2023-04-03T10:47:30;3.13;;;2.90;;
13218;SDS011;6674;49.152;11.918;2023-04-03T10:50:09;1.50;;;1.40;;
13218;SDS011;6674;49.152;11.918;2023-04-03T10:52:51;3.40;;;3.10;;
13218;SDS011;6674;49.152;11.918;2023-04-03T10:55:29;1.57;;;1.47;;
13218;SDS011;6674;49.152;11.918;2023-04-03T10:58:00;1.80;;;1.63;;
13218;SDS011;6674;49.152;11.918;2023-04-03T11:00:30;2.17;;;1.93;;
13218;SDS011;6674;49.152;11.918;2023-04-03T11:03:05;6.30;;;5.70;;
13218;SDS011;6674;49.152;11.918;2023-04-03T11:05:40;6.00;;;5.40;;
13218;SDS011;6674;49.152;11.918;2023-04-03T11:08:11;3.77;;;3.37;;
13218;SDS011;6674;49.152;11.918;2023-04-03T11:10:46;8.73;;;7.70;;
13218;SDS011;6674;49.152;11.918;2023-04-03T11:13:17;3.80;;;2.80;;
13218;SDS011;6674;49.152;11.918;2023-04-03T11:15:48;1.67;;;1.33;;
13218;SDS011;6674;49.152;11.918;2023-04-03T11:18:19;1.80;;;1.57;;
13218;SDS011;6674;49.152;11.918;2023-04-03T11:20:53;2.10;;;1.43;;
13218;SDS011;6674;49.152;11.918;2023-04-03T11:23:28;5.23;;;4.70;;
13218;SDS011;6674;49.152;11.918;2023-04-03T11:26:00;3.87;;;3.00;;
13218;SDS011;6674;49.152;11.918;2023-04-03T11:28:35;3.50;;;2.10;;
13218;SDS011;6674;49.152;11.918;2023-04-03T11:31:06;2.60;;;1.70;;
13218;SDS011;6674;49.152;11.918;2023-04-03T11:33:43;1.40;;;1.30;;
13218;SDS011;6674;49.152;11.918;2023-04-03T11:36:19;1.33;;;1.07;;
13218;SDS011;6674;49.152;11.918;2023-04-03T11:38:51;3.00;;;1.20;;
13218;SDS011;6674;49.152;11.918;2023-04-03T11:41:25;2.30;;;1.10;;
13218;SDS011;6674;49.152;11.918;2023-04-03T11:43:55;1.53;;;1.10;;
13218;SDS011;6674;49.152;11.918;2023-04-03T11:46:34;1.40;;;1.17;;
13218;SDS011;6674;49.152;11.918;2023-04-03T11:58:21;2.20;;;1.53;;
13218;SDS011;6674;49.152;11.918;2023-04-03T12:00:49;1.53;;;1.07;;
13218;SDS011;6674;49.152;11.918;2023-04-03T12:12:41;2.13;;;1.17;;
13218;SDS011;6674;49.152;11.918;2023-04-03T12:15:18;1.87;;;1.30;;
13218;SDS011;6674;49.152;11.918;2023-04-03T12:17:49;1.77;;;1.30;;
13218;SDS011;6674;49.152;11.918;2023-04-03T12:23:23;2.27;;;2.07;;
13218;SDS011;6674;49.152;11.918;2023-04-03T12:25:52;2.10;;;1.60;;
13218;SDS011;6674;49.152;11.918;2023-04-03T12:28:29;2.33;;;2.07;;
13218;SDS011;6674;49.152;11.918;2023-04-03T12:30:55;1.37;;;1.03;;
13218;SDS011;6674;49.152;11.918;2023-04-03T12:33:27;2.93;;;2.53;;
13218;SDS011;6674;49.152;11.918;2023-04-03T12:36:04;4.20;;;3.80;;
13218;SDS011;6674;49.152;11.918;2023-04-03T12:38:41;2.83;;;2.63;;
13218;SDS011;6674;49.152;11.918;2023-04-03T12:41:23;1.73;;;1.23;;
13218;SDS011;6674;49.152;11.918;2023-04-03T12:44:03;1.17;;;1.07;;
13218;SDS011;6674;49.152;11.918;2023-04-03T12:46:39;1.33;;;1.20;;
13218;SDS011;6674;49.152;11.918;2023-04-03T12:49:14;1.57;;;1.00;;
13218;SDS011;6674;49.152;11.918;2023-04-03T12:51:50;1.47;;;1.37;;
13218;SDS011;6674;49.152;11.918;2023-04-03T12:54:18;2.30;;;2.10;;
13218;SDS011;6674;49.152;11.918;2023-04-03T12:56:50;1.30;;;1.07;;
13218;SDS011;6674;49.152;11.918;2023-04-03T12:59:18;1.97;;;1.30;;
13218;SDS011;6674;49.152;11.918;2023-04-03T13:01:52;1.67;;;1.57;;
13218;SDS011;6674;49.152;11.918;2023-04-03T13:04:32;1.50;;;1.33;;
13218;SDS011;6674;49.152;11.918;2023-04-03T13:06:59;1.60;;;1.50;;
13218;SDS011;6674;49.152;11.918;2023-04-03T13:09:28;1.97;;;1.47;;
13218;SDS011;6674;49.152;11.918;2023-04-03T13:11:59;1.50;;;1.00;;
13218;SDS011;6674;49.152;11.918;2023-04-03T13:14:29;1.27;;;1.17;;
13218;SDS011;6674;49.152;11.918;2023-04-03T13:16:56;2.50;;;2.30;;
13218;SDS011;6674;49.152;11.918;2023-04-03T13:19:26;1.63;;;1.20;;
13218;SDS011;6674;49.152;11.918;2023-04-03T13:21:55;1.20;;;1.10;;
13218;SDS011;6674;49.152;11.918;2023-04-03T13:24:26;1.80;;;0.83;;
13218;SDS011;6674;49.152;11.918;2023-04-03T13:26:54;1.33;;;1.20;;
13218;SDS011;6674;49.152;11.918;2023-04-03T13:29:24;1.77;;;1.40;;
13218;SDS011;6674;49.152;11.918;2023-04-03T13:31:53;2.40;;;2.20;;
13218;SDS011;6674;49.152;11.918;2023-04-03T13:34:21;2.20;;;2.00;;
13218;SDS011;6674;49.152;11.918;2023-04-03T13:36:55;2.67;;;2.47;;
13218;SDS011;6674;49.152;11.918;2023-04-03T13:39:24;2.43;;;2.30;;
13218;SDS011;6674;49.152;11.918;2023-04-03T13:41:53;1.60;;;1.20;;
13218;SDS011;6674;49.152;11.918;2023-04-03T13:44:34;1.73;;;1.27;;
13218;SDS011;6674;49.152;11.918;2023-04-03T13:47:15;2.40;;;2.20;;
13218;SDS011;6674;49.152;11.918;2023-04-03T13:49:44;2.40;;;2.20;;
13218;SDS011;6674;49.152;11.918;2023-04-03T13:52:26;3.27;;;2.60;;
13218;SDS011;6674;49.152;11.918;2023-04-03T13:54:58;1.73;;;1.57;;
13218;SDS011;6674;49.152;11.918;2023-04-03T13:57:27;2.10;;;2.00;;
13218;SDS011;6674;49.152;11.918;2023-04-03T13:59:55;1.90;;;1.80;;
13218;SDS011;6674;49.152;11.918;2023-04-03T14:02:28;2.23;;;1.90;;
13218;SDS011;6674;49.152;11.918;2023-04-03T14:04:58;1.57;;;1.17;;
13218;SDS011;6674;49.152;11.918;2023-04-03T14:07:27;2.20;;;2.00;;
13218;SDS011;6674;49.152;11.918;2023-04-03T14:09:54;2.13;;;1.93;;
13218;SDS011;6674;49.152;11.918;2023-04-03T14:12:24;2.23;;;1.20;;
13218;SDS011;6674;49.152;11.918;2023-04-03T14:14:53;2.33;;;1.60;;
13218;SDS011;6674;49.152;11.918;2023-04-03T14:17:23;1.40;;;1.30;;
13218;SDS011;6674;49.152;11.918;2023-04-03T14:19:54;1.63;;;1.40;;
13218;SDS011;6674;49.152;11.918;2023-04-03T14:22:22;1.40;;;1.30;;
13218;SDS011;6674;49.152;11.918;2023-04-03T14:24:50;1.17;;;1.07;;
13218;SDS011;6674;49.152;11.918;2023-04-03T14:27:19;1.20;;;1.10;;
13218;SDS011;6674;49.152;11.918;2023-04-03T14:29:48;2.87;;;1.17;;
13218;SDS011;6674;49.152;11.918;2023-04-03T14:32:16;2.43;;;1.50;;
13218;SDS011;6674;49.152;11.918;2023-04-03T14:34:46;1.20;;;1.10;;
13218;SDS011;6674;49.152;11.918;2023-04-03T14:37:13;1.43;;;1.20;;
13218;SDS011;6674;49.152;11.918;2023-04-03T14:39:42;2.00;;;1.47;;
13218;SDS011;6674;49.152;11.918;2023-04-03T14:42:12;1.10;;;1.00;;
13218;SDS011;6674;49.152;11.918;2023-04-03T14:44:40;2.07;;;1.40;;
13218;SDS011;6674;49.152;11.918;2023-04-03T14:47:09;1.57;;;1.00;;
13218;SDS011;6674;49.152;11.918;2023-04-03T14:49:38;1.53;;;1.00;;
13218;SDS011;6674;49.152;11.918;2023-04-03T14:52:09;1.23;;;1.07;;
13218;SDS011;6674;49.152;11.918;2023-04-03T14:54:44;1.30;;;1.10;;
13218;SDS011;6674;49.152;11.918;2023-04-03T14:57:11;2.07;;;1.13;;
13218;SDS011;6674;49.152;11.918;2023-04-03T14:59:40;1.33;;;1.10;;
13218;SDS011;6674;49.152;11.918;2023-04-03T15:02:13;1.93;;;1.40;;
13218;SDS011;6674;49.152;11.918;2023-04-03T15:04:50;3.50;;;2.00;;
13218;SDS011;6674;49.152;11.918;2023-04-03T15:07:18;1.17;;;1.07;;
13218;SDS011;6674;49.152;11.918;2023-04-03T15:09:45;1.50;;;1.20;;
13218;SDS011;6674;49.152;11.918;2023-04-03T15:12:12;2.30;;;1.07;;
13218;SDS011;6674;49.152;11.918;2023-04-03T15:14:39;1.87;;;1.40;;
13218;SDS011;6674;49.152;11.918;2023-04-03T15:17:05;1.73;;;1.37;;
13218;SDS011;6674;49.152;11.918;2023-04-03T15:19:37;1.70;;;1.20;;
13218;SDS011;6674;49.152;11.918;2023-04-03T15:22:05;2.70;;;1.50;;
13218;SDS011;6674;49.152;11.918;2023-04-03T15:24:33;1.60;;;0.97;;